createdAt,value
2023-04-03T00:01:24.394Z,28.75
2023-04-03T00:03:53.718Z,29.00
2023-04-03T00:06:22.148Z,25.25
2023-04-03T00:08:51.358Z,23.50
2023-04-03T00:11:20.982Z,26.75
2023-04-03T00:13:49.379Z,28.25
2023-04-03T00:16:18.118Z,25.00
2023-04-03T00:18:46.769Z,25.25
2023-04-03T00:21:16.575Z,27.25
2023-04-03T00:23:45.095Z,25.50
2023-04-03T00:26:13.484Z,25.00
2023-04-03T00:28:43.619Z,27.50
2023-04-03T00:31:12.090Z,25.25
2023-04-03T00:33:40.458Z,25.00
2023-04-03T00:36:11.440Z,28.75
2023-04-03T00:38:40.030Z,27.25
2023-04-03T00:41:09.079Z,25.25
2023-04-03T00:43:37.701Z,23.50
2023-04-03T00:46:06.360Z,28.25
2023-04-03T00:48:42.928Z,24.50
2023-04-03T00:51:20.130Z,26.50
2023-04-03T00:53:56.934Z,24.25
2023-04-03T00:56:29.244Z,24.25
2023-04-03T00:59:07.726Z,26.25
2023-04-03T01:01:37.076Z,25.00
2023-04-03T01:04:07.881Z,26.75
2023-04-03T01:06:39.982Z,26.50
2023-04-03T01:09:08.847Z,23.25
2023-04-03T01:11:37.247Z,25.25
2023-04-03T01:14:07.920Z,28.00
2023-04-03T01:16:36.702Z,26.00
2023-04-03T01:19:07.755Z,26.50
2023-04-03T01:22:14.794Z,27.75
2023-04-03T01:24:43.402Z,27.50
2023-04-03T01:27:13.908Z,29.50
2023-04-03T01:29:43.474Z,25.50
2023-04-03T01:32:11.926Z,28.25
2023-04-03T01:34:40.268Z,25.75
2023-04-03T01:37:08.681Z,28.75
2023-04-03T01:39:37.244Z,27.50
2023-04-03T01:42:06.348Z,30.25
2023-04-03T01:44:34.838Z,27.50
2023-04-03T01:47:03.174Z,27.50
2023-04-03T01:49:31.507Z,27.50
2023-04-03T01:51:59.879Z,28.00
2023-04-03T01:54:28.272Z,26.75
2023-04-03T01:56:56.661Z,29.00
2023-04-03T01:59:25.107Z,28.75
2023-04-03T02:01:53.457Z,28.25
2023-04-03T02:04:21.950Z,28.00
2023-04-03T02:06:50.647Z,30.50
2023-04-03T02:09:19.084Z,31.00
2023-04-03T02:11:47.495Z,29.25
2023-04-03T02:14:15.958Z,30.50
2023-04-03T02:16:44.396Z,28.50
2023-04-03T02:19:12.854Z,26.75
2023-04-03T02:21:41.264Z,30.00
2023-04-03T02:24:09.845Z,30.50
2023-04-03T02:26:38.237Z,30.00
2023-04-03T02:29:06.904Z,27.75
2023-04-03T02:31:35.339Z,30.00
2023-04-03T02:34:03.766Z,30.00
2023-04-03T02:36:33.029Z,31.00
2023-04-03T02:39:01.521Z,29.75
2023-04-03T02:41:35.591Z,26.50
2023-04-03T02:44:05.341Z,31.50
2023-04-03T02:46:34.157Z,28.75
2023-04-03T02:49:02.524Z,33.75
2023-04-03T02:51:30.954Z,26.75
2023-04-03T02:53:59.344Z,28.75
2023-04-03T02:56:28.776Z,31.25
2023-04-03T02:58:57.273Z,31.50
2023-04-03T03:01:25.694Z,29.75
2023-04-03T03:03:54.057Z,31.75
2023-04-03T03:06:22.397Z,29.75
2023-04-03T03:08:50.765Z,31.50
2023-04-03T03:11:19.183Z,31.00
2023-04-03T03:13:47.633Z,32.50
2023-04-03T03:16:16.443Z,30.50
2023-04-03T03:18:44.906Z,31.00
2023-04-03T03:21:13.499Z,32.75
2023-04-03T03:23:42.140Z,33.25
2023-04-03T03:26:13.387Z,33.00
2023-04-03T03:28:42.731Z,34.75
2023-04-03T03:31:12.175Z,33.75
2023-04-03T03:33:40.618Z,32.25
2023-04-03T03:36:09.422Z,35.50
2023-04-03T03:38:37.843Z,30.75
2023-04-03T03:41:06.298Z,31.50
2023-04-03T03:43:34.933Z,32.50
2023-04-03T03:46:03.304Z,30.25
2023-04-03T03:48:31.796Z,29.75
2023-04-03T03:51:00.167Z,32.25
2023-04-03T03:53:28.551Z,32.00
2023-04-03T03:55:57.082Z,30.75
2023-04-03T03:58:25.518Z,27.75
2023-04-03T04:00:54.054Z,29.25
2023-04-03T04:03:23.097Z,31.00
2023-04-03T04:05:51.565Z,30.75
2023-04-03T04:08:20.013Z,29.75
2023-04-03T04:10:48.543Z,28.75
2023-04-03T04:13:17.141Z,30.00
2023-04-03T04:15:45.957Z,30.50
2023-04-03T04:18:14.514Z,29.25
2023-04-03T04:20:42.896Z,29.25
2023-04-03T04:23:11.428Z,31.50
2023-04-03T04:25:39.812Z,30.75
2023-04-03T04:28:08.494Z,30.25
2023-04-03T04:30:36.946Z,30.50
2023-04-03T04:33:05.895Z,32.50
2023-04-03T04:35:34.541Z,28.50
2023-04-03T04:38:03.571Z,29.50
2023-04-03T04:40:32.059Z,31.00
2023-04-03T04:43:00.441Z,31.75
2023-04-03T04:45:28.869Z,30.25
2023-04-03T04:48:00.421Z,30.50
2023-04-03T04:50:28.892Z,31.25
2023-04-03T04:52:57.259Z,28.00
2023-04-03T04:55:25.643Z,28.75
2023-04-03T04:57:54.074Z,28.25
2023-04-03T05:00:22.786Z,29.50
2023-04-03T05:02:51.253Z,26.50
2023-04-03T05:05:19.666Z,29.50
2023-04-03T05:07:48.077Z,28.50
2023-04-03T05:10:16.443Z,27.25
2023-04-03T05:12:44.836Z,26.00
2023-04-03T05:15:13.408Z,28.50
2023-04-03T05:17:41.909Z,28.50
2023-04-03T05:20:10.667Z,27.50
2023-04-03T05:22:39.327Z,27.00
2023-04-03T05:25:08.454Z,29.25
2023-04-03T05:27:36.944Z,29.25
2023-04-03T05:30:06.314Z,24.75
2023-04-03T05:32:35.482Z,24.75
2023-04-03T05:35:04.202Z,27.00
2023-04-03T05:37:32.581Z,28.75
2023-04-03T05:40:01.476Z,28.00
2023-04-03T05:42:29.935Z,26.00
2023-04-03T05:44:58.423Z,27.25
2023-04-03T05:47:27.004Z,31.00
2023-04-03T05:49:55.458Z,27.25
2023-04-03T05:52:32.937Z,26.75
2023-04-03T05:55:01.297Z,26.00
2023-04-03T05:57:29.918Z,30.25
2023-04-03T05:59:58.293Z,27.75
2023-04-03T06:02:28.102Z,24.00
2023-04-03T06:04:56.750Z,28.00
2023-04-03T06:07:30.019Z,25.75
2023-04-03T06:09:59.672Z,30.00
2023-04-03T06:12:30.764Z,30.50
2023-04-03T06:14:59.260Z,30.75
2023-04-03T06:17:29.093Z,27.75
2023-04-03T06:19:57.843Z,30.25
2023-04-03T06:22:27.612Z,27.50
2023-04-03T06:24:56.717Z,29.00
2023-04-03T06:27:25.583Z,30.00
2023-04-03T06:29:53.928Z,30.75
2023-04-03T06:32:22.306Z,30.75
2023-04-03T06:34:50.648Z,29.00
2023-04-03T06:37:24.873Z,29.75
2023-04-03T06:39:53.191Z,29.75
2023-04-03T06:42:21.604Z,29.00
2023-04-03T06:44:50.208Z,30.75
2023-04-03T06:47:19.566Z,29.75
2023-04-03T06:49:48.149Z,28.75
2023-04-03T06:52:16.544Z,27.50
2023-04-03T06:54:44.936Z,29.75
2023-04-03T06:57:13.322Z,30.00
2023-04-03T06:59:42.101Z,28.75
2023-04-03T07:02:14.714Z,28.75
2023-04-03T07:04:43.131Z,25.75
2023-04-03T07:07:12.192Z,27.50
2023-04-03T07:09:40.523Z,26.50
2023-04-03T07:12:09.207Z,28.00
2023-04-03T07:14:37.607Z,28.50
2023-04-03T07:17:05.971Z,27.25
2023-04-03T07:19:34.366Z,28.50
2023-04-03T07:22:02.717Z,29.25
2023-04-03T07:24:31.056Z,28.25
2023-04-03T07:26:59.444Z,28.25
2023-04-03T07:29:27.852Z,28.25
2023-04-03T07:31:57.342Z,28.50
2023-04-03T07:34:26.083Z,28.25
2023-04-03T07:36:54.788Z,30.25
2023-04-03T07:39:23.205Z,27.75
2023-04-03T07:41:51.775Z,29.75
2023-04-03T07:44:20.617Z,27.50
2023-04-03T07:46:48.998Z,27.25
2023-04-03T07:49:18.610Z,30.25
2023-04-03T07:51:48.570Z,30.50
2023-04-03T07:54:17.418Z,27.50
2023-04-03T07:56:45.849Z,29.00
2023-04-03T07:59:14.787Z,27.00
2023-04-03T08:01:44.419Z,27.00
2023-04-03T08:04:13.044Z,26.25
2023-04-03T08:06:47.034Z,30.00
2023-04-03T08:09:17.928Z,25.75
2023-04-03T08:11:46.988Z,26.50
2023-04-03T08:14:19.851Z,26.00
2023-04-03T08:16:49.685Z,23.75
2023-04-03T08:19:26.243Z,23.00
2023-04-03T08:21:57.126Z,26.00
2023-04-03T08:24:25.726Z,24.50
2023-04-03T08:26:54.103Z,25.50
2023-04-03T08:29:23.173Z,24.25
2023-04-03T08:31:52.284Z,29.00
2023-04-03T08:34:21.361Z,27.50
2023-04-03T08:36:50.216Z,26.25
2023-04-03T08:39:18.661Z,28.50
2023-04-03T08:41:49.630Z,28.25
2023-04-03T08:44:30.139Z,26.75
2023-04-03T08:47:19.776Z,30.25
2023-04-03T08:49:59.574Z,23.75
2023-04-03T08:52:54.788Z,25.25
2023-04-03T08:55:29.300Z,26.25
2023-04-03T08:58:07.757Z,26.50
2023-04-03T09:00:58.535Z,24.75
2023-04-03T09:03:27.399Z,24.75
2023-04-03T09:06:13.417Z,22.75
2023-04-03T09:08:50.332Z,24.75
2023-04-03T09:11:39.931Z,23.25
2023-04-03T09:14:36.187Z,26.25
2023-04-03T09:17:20.091Z,24.25
2023-04-03T09:20:00.682Z,22.00
2023-04-03T09:22:36.501Z,20.50
2023-04-03T09:25:23.939Z,22.75
2023-04-03T09:27:53.538Z,21.50
2023-04-03T09:30:27.953Z,23.25
2023-04-03T09:33:01.486Z,27.00
2023-04-03T09:35:44.958Z,24.50
2023-04-03T09:38:23.052Z,23.00
2023-04-03T09:41:09.439Z,21.50
2023-04-03T09:43:40.768Z,21.50
2023-04-03T09:46:24.312Z,25.50
2023-04-03T09:51:35.507Z,28.00
2023-04-03T09:54:29.146Z,31.25
2023-04-03T09:57:00.319Z,27.00
2023-04-03T09:59:28.749Z,27.25
2023-04-03T10:02:04.643Z,29.00
2023-04-03T10:04:43.690Z,30.50
2023-04-03T10:07:40.191Z,29.50
2023-04-03T10:10:24.719Z,26.75
2023-04-03T10:13:09.315Z,26.75
2023-04-03T10:15:47.495Z,26.25
2023-04-03T10:18:41.225Z,27.00
2023-04-03T10:21:27.211Z,24.50
2023-04-03T10:24:13.170Z,27.50
2023-04-03T10:27:02.234Z,28.75
2023-04-03T10:29:36.035Z,25.50
2023-04-03T10:32:04.326Z,26.25
2023-04-03T10:34:43.517Z,24.75
2023-04-03T10:37:22.433Z,27.25
2023-04-03T10:40:08.965Z,23.00
2023-04-03T10:42:40.129Z,26.00
2023-04-03T10:45:11.261Z,24.50
2023-04-03T10:47:45.609Z,25.25
2023-04-03T10:50:34.204Z,25.25
2023-04-03T10:53:21.592Z,25.50
2023-04-03T10:56:14.070Z,27.00
2023-04-03T10:58:47.222Z,22.75
2023-04-03T11:01:21.232Z,23.00
2023-04-03T11:03:55.338Z,26.25
2023-04-03T11:06:27.756Z,26.50
2023-04-03T11:09:03.474Z,26.25
2023-04-03T11:11:42.091Z,27.00
2023-04-03T11:14:28.617Z,21.25
2023-04-03T11:17:13.720Z,25.50
2023-04-03T11:19:54.014Z,24.50
2023-04-03T11:22:30.201Z,22.75
2023-04-03T11:25:08.191Z,24.25
2023-04-03T11:27:58.688Z,24.25
2023-04-03T11:30:37.067Z,20.00
2023-04-03T11:33:23.961Z,22.00
2023-04-03T11:35:58.894Z,24.50
2023-04-03T11:38:38.246Z,22.25
2023-04-03T11:41:09.092Z,25.50
2023-04-03T11:43:59.170Z,25.25
2023-04-03T11:46:56.497Z,24.50
2023-04-03T11:50:02.989Z,25.75
2023-04-03T11:52:45.088Z,25.50
2023-04-03T11:55:25.332Z,27.00
2023-04-03T11:58:02.967Z,20.50
2023-04-03T12:00:48.425Z,28.75
2023-04-03T12:03:28.947Z,23.50
2023-04-03T12:06:02.139Z,28.50
2023-04-03T12:08:34.612Z,24.75
2023-04-03T12:11:14.932Z,28.00
2023-04-03T12:13:52.567Z,25.50
2023-04-03T12:16:46.655Z,26.50
2023-04-03T12:19:22.276Z,22.75
2023-04-03T12:22:00.172Z,24.75
2023-04-03T12:24:33.565Z,26.75
2023-04-03T12:27:20.400Z,24.00
2023-04-03T12:30:12.827Z,23.50
2023-04-03T12:33:18.608Z,24.25
2023-04-03T12:36:03.738Z,29.25
2023-04-03T12:38:57.490Z,30.50
2023-04-03T12:41:53.483Z,27.25
2023-04-03T12:44:24.940Z,25.00
2023-04-03T12:46:55.401Z,28.25
2023-04-03T12:49:29.504Z,27.75
2023-04-03T12:51:58.012Z,31.25
2023-04-03T12:54:41.764Z,30.25
2023-04-03T12:57:20.278Z,31.25
2023-04-03T12:59:50.248Z,34.00
2023-04-03T13:02:39.416Z,32.75
2023-04-03T13:05:11.903Z,35.25
2023-04-03T13:07:42.691Z,36.25
2023-04-03T13:10:11.043Z,36.25
2023-04-03T13:12:54.992Z,35.50
2023-04-03T13:15:32.211Z,37.25
2023-04-03T13:18:00.666Z,34.25
2023-04-03T13:20:36.421Z,37.25
2023-04-03T13:23:10.705Z,36.75
2023-04-03T13:25:46.026Z,34.25
2023-04-03T13:28:18.059Z,33.50
2023-04-03T13:31:04.983Z,35.50
2023-04-03T13:33:39.810Z,37.25
2023-04-03T13:36:18.625Z,35.75
2023-04-03T13:38:47.416Z,35.75
2023-04-03T13:41:34.053Z,37.50
2023-04-03T13:44:24.373Z,35.25
2023-04-03T13:47:02.756Z,36.00
2023-04-03T13:49:35.922Z,35.75
2023-04-03T13:52:28.635Z,34.75
2023-04-03T13:55:04.226Z,35.00
2023-04-03T13:57:34.729Z,35.25
2023-04-03T14:00:30.055Z,37.50
2023-04-03T14:02:59.125Z,34.75
2023-04-03T14:05:28.532Z,36.25
2023-04-03T14:07:58.396Z,36.50
2023-04-03T14:10:27.029Z,36.50
2023-04-03T14:12:55.473Z,37.50
2023-04-03T14:15:30.425Z,36.75
2023-04-03T14:18:00.406Z,34.75
2023-04-03T14:20:30.637Z,38.00
2023-04-03T14:22:59.408Z,37.00
2023-04-03T14:25:28.672Z,34.50
2023-04-03T14:27:57.255Z,36.25
2023-04-03T14:30:34.409Z,36.50
2023-04-03T14:33:03.304Z,36.00
2023-04-03T14:35:31.849Z,34.50
2023-04-03T14:38:00.295Z,34.25
2023-04-03T14:40:29.631Z,36.50
2023-04-03T14:42:59.302Z,31.75
2023-04-03T14:45:28.266Z,36.00
2023-04-03T14:47:58.531Z,35.50
2023-04-03T14:50:29.239Z,36.00
2023-04-03T14:53:00.928Z,33.50
2023-04-03T14:55:29.774Z,37.75
2023-04-03T14:57:58.173Z,33.00
2023-04-03T15:00:26.815Z,35.50
2023-04-03T15:02:55.505Z,33.00
2023-04-03T15:05:23.984Z,34.25
2023-04-03T15:07:58.368Z,35.00
2023-04-03T15:10:31.957Z,36.75
2023-04-03T15:13:00.382Z,35.75
2023-04-03T15:15:31.361Z,33.00
2023-04-03T15:18:00.353Z,32.50
2023-04-03T15:20:32.594Z,34.75
2023-04-03T15:23:06.880Z,35.00
2023-04-03T15:25:35.500Z,34.50
2023-04-03T15:28:04.177Z,35.75
2023-04-03T15:30:33.049Z,32.50
2023-04-03T15:33:01.531Z,35.25
2023-04-03T15:35:30.140Z,33.75
2023-04-03T15:37:58.544Z,32.75
2023-04-03T15:40:27.622Z,35.50
2023-04-03T15:42:56.598Z,32.50
2023-04-03T15:45:25.798Z,33.25
2023-04-03T15:47:54.300Z,34.00
2023-04-03T15:50:24.776Z,33.75
2023-04-03T15:52:56.368Z,32.75
2023-04-03T15:55:26.336Z,34.00
2023-04-03T15:57:55.681Z,33.50
2023-04-03T16:00:26.384Z,32.25
2023-04-03T16:02:59.281Z,33.50
2023-04-03T16:05:28.217Z,32.25
2023-04-03T16:07:57.190Z,32.50
2023-04-03T16:10:25.718Z,35.00
2023-04-03T16:12:54.686Z,31.50
2023-04-03T16:15:23.408Z,34.00
2023-04-03T16:17:52.466Z,32.75
2023-04-03T16:20:22.213Z,33.75
2023-04-03T16:22:52.056Z,35.50
2023-04-03T16:25:20.741Z,32.00
2023-04-03T16:27:49.141Z,33.75
2023-04-03T16:30:17.605Z,33.75
2023-04-03T16:32:46.383Z,34.00
2023-04-03T16:35:14.969Z,31.75
2023-04-03T16:37:43.361Z,32.00
2023-04-03T16:40:12.096Z,33.75
2023-04-03T16:42:40.832Z,31.00
2023-04-03T16:45:10.058Z,33.50
2023-04-03T16:47:38.525Z,30.50
2023-04-03T16:50:07.610Z,30.25
2023-04-03T16:52:36.310Z,30.00
2023-04-03T16:55:04.934Z,31.00
2023-04-03T16:57:33.365Z,30.75
2023-04-03T17:00:01.923Z,29.75
2023-04-03T17:02:31.171Z,26.00
2023-04-03T17:04:59.653Z,31.75
2023-04-03T17:07:28.609Z,30.00
2023-04-03T17:09:57.069Z,30.75
2023-04-03T17:12:26.019Z,30.75
2023-04-03T17:14:54.446Z,29.75
2023-04-03T17:17:27.170Z,29.50
2023-04-03T17:19:57.113Z,30.50
2023-04-03T17:22:26.151Z,30.50
2023-04-03T17:24:54.857Z,29.00
2023-04-03T17:27:23.785Z,31.00
2023-04-03T17:29:52.267Z,31.50
2023-04-03T17:32:20.717Z,31.50
2023-04-03T17:34:49.374Z,29.50
2023-04-03T17:37:18.022Z,32.00
2023-04-03T17:39:47.900Z,31.75
2023-04-03T17:42:17.101Z,31.75
2023-04-03T17:44:45.587Z,30.50
2023-04-03T17:47:14.045Z,31.75
2023-04-03T17:49:42.675Z,32.00
2023-04-03T17:52:11.573Z,28.25
2023-04-03T17:54:40.416Z,31.00
2023-04-03T17:57:09.810Z,31.50
2023-04-03T17:59:39.209Z,31.25
2023-04-03T18:02:07.798Z,31.00
2023-04-03T18:04:36.210Z,30.00
2023-04-03T18:07:08.903Z,29.50
2023-04-03T18:09:38.820Z,30.25
2023-04-03T18:12:10.208Z,30.75
2023-04-03T18:14:40.369Z,30.75
2023-04-03T18:17:09.031Z,28.50
2023-04-03T18:19:37.558Z,28.25
2023-04-03T18:22:10.966Z,31.00
2023-04-03T18:24:39.670Z,32.75
2023-04-03T18:27:14.259Z,28.00
2023-04-03T18:29:45.785Z,28.75
2023-04-03T18:32:17.445Z,30.00
2023-04-03T18:34:45.925Z,30.75
2023-04-03T18:37:16.071Z,29.75
2023-04-03T18:39:44.508Z,28.50
2023-04-03T18:42:16.486Z,27.75
2023-04-03T18:44:48.864Z,28.50
2023-04-03T18:47:17.384Z,29.25
2023-04-03T18:49:46.001Z,22.75
2023-04-03T18:52:14.502Z,29.00
2023-04-03T18:54:43.814Z,29.00
2023-04-03T18:57:12.236Z,32.50
2023-04-03T18:59:40.631Z,28.75
2023-04-03T19:02:10.357Z,30.50
2023-04-03T19:04:38.977Z,28.25
2023-04-03T19:07:07.528Z,29.75
2023-04-03T19:09:36.484Z,29.75
2023-04-03T19:12:05.244Z,29.75
2023-04-03T19:14:33.958Z,30.75
2023-04-03T19:17:03.687Z,27.75
2023-04-03T19:19:32.185Z,30.50
2023-04-03T19:22:00.605Z,31.25
2023-04-03T19:24:29.020Z,29.00
2023-04-03T19:26:57.464Z,31.00
2023-04-03T19:29:25.863Z,31.50
2023-04-03T19:31:54.277Z,29.50
2023-04-03T19:34:23.065Z,31.50
2023-04-03T19:36:53.021Z,30.50
2023-04-03T19:39:21.777Z,29.00
2023-04-03T19:41:50.456Z,30.50
2023-04-03T19:44:18.891Z,29.25
2023-04-03T19:46:50.944Z,30.50
2023-04-03T19:49:20.875Z,30.50
2023-04-03T19:51:49.286Z,27.50
2023-04-03T19:54:17.948Z,26.00
2023-04-03T19:56:46.992Z,30.25
2023-04-03T19:59:15.831Z,31.00
2023-04-03T20:01:44.639Z,29.75
2023-04-03T20:04:13.633Z,31.25
2023-04-03T20:06:42.112Z,31.00
2023-04-03T20:09:10.557Z,31.25
2023-04-03T20:11:41.365Z,30.50
2023-04-03T20:14:09.762Z,31.00
2023-04-03T20:16:38.944Z,30.50
2023-04-03T20:19:08.104Z,30.50
2023-04-03T20:21:37.241Z,31.75
2023-04-03T20:24:10.745Z,29.50
2023-04-03T20:26:44.730Z,30.75
2023-04-03T20:29:15.403Z,28.50
2023-04-03T20:31:43.876Z,31.75
2023-04-03T20:34:12.749Z,29.00
2023-04-03T20:36:41.259Z,27.75
2023-04-03T20:39:10.152Z,31.00
2023-04-03T20:41:40.309Z,30.25
2023-04-03T20:44:08.734Z,31.75
2023-04-03T20:46:51.426Z,29.75
2023-04-03T20:49:22.929Z,30.00
2023-04-03T20:51:52.292Z,31.00
2023-04-03T20:54:21.202Z,30.00
2023-04-03T20:56:50.714Z,30.50
2023-04-03T20:59:19.633Z,30.75
2023-04-03T21:01:48.595Z,29.25
2023-04-03T21:04:31.359Z,29.75
2023-04-03T21:07:39.764Z,27.00
2023-04-03T21:10:45.184Z,28.75
2023-04-03T21:13:50.311Z,30.75
2023-04-03T21:16:18.300Z,28.00
2023-04-03T21:19:03.553Z,33.50
2023-04-03T21:21:32.178Z,27.25
2023-04-03T21:24:02.410Z,29.75
2023-04-03T21:26:30.816Z,30.75
2023-04-03T21:28:59.385Z,30.50
2023-04-03T21:31:54.761Z,29.25
2023-04-03T21:34:27.226Z,29.25
2023-04-03T21:36:58.130Z,29.00
2023-04-03T21:39:26.550Z,29.25
2023-04-03T21:41:55.034Z,29.75
2023-04-03T21:44:24.401Z,29.00
2023-04-03T21:46:55.872Z,30.75
2023-04-03T21:49:26.007Z,30.00
2023-04-03T21:51:56.881Z,31.25
2023-04-03T21:54:26.339Z,30.50
2023-04-03T21:56:54.818Z,27.50
2023-04-03T21:59:24.072Z,30.50
2023-04-03T22:01:52.722Z,30.25
2023-04-03T22:04:21.194Z,30.25
2023-04-03T22:06:49.640Z,28.50
2023-04-03T22:09:18.222Z,29.00
2023-04-03T22:11:46.834Z,30.50
2023-04-03T22:14:15.220Z,30.75
2023-04-03T22:16:47.467Z,27.50
2023-04-03T22:19:16.085Z,30.50
2023-04-03T22:21:44.627Z,29.75
2023-04-03T22:24:13.301Z,33.25
2023-04-03T22:26:45.206Z,29.75
2023-04-03T22:29:18.067Z,30.00
2023-04-03T22:31:46.500Z,30.00
2023-04-03T22:34:15.153Z,31.50
2023-04-03T22:36:44.050Z,31.25
2023-04-03T22:39:13.967Z,30.00
2023-04-03T22:41:43.828Z,31.00
2023-04-03T22:44:13.501Z,29.50
2023-04-03T22:46:42.311Z,32.75
2023-04-03T22:49:10.740Z,32.25
2023-04-03T22:51:39.185Z,29.00
2023-04-03T22:54:07.835Z,30.50
2023-04-03T22:56:36.310Z,32.25
2023-04-03T22:59:05.101Z,32.00
2023-04-03T23:01:33.584Z,31.00
2023-04-03T23:04:02.171Z,30.25
2023-04-03T23:06:30.636Z,29.00
2023-04-03T23:08:59.124Z,31.75
2023-04-03T23:11:28.024Z,31.75
2023-04-03T23:13:56.444Z,31.00
2023-04-03T23:16:24.874Z,32.00
2023-04-03T23:18:53.351Z,31.25
2023-04-03T23:21:22.054Z,32.00
2023-04-03T23:23:50.444Z,31.50
2023-04-03T23:26:19.030Z,32.00
2023-04-03T23:28:47.468Z,31.50
2023-04-03T23:31:15.938Z,32.25
2023-04-03T23:33:45.465Z,32.75
2023-04-03T23:36:14.441Z,32.50
2023-04-03T23:38:43.986Z,32.25
2023-04-03T23:41:12.438Z,32.50
2023-04-03T23:43:42.462Z,34.75
2023-04-03T23:46:11.019Z,31.75
2023-04-03T23:48:39.507Z,35.25
2023-04-03T23:51:08.052Z,32.00
2023-04-03T23:53:36.505Z,32.25
2023-04-03T23:56:10.553Z,34.00
2023-04-03T23:58:39.095Z,34.25
